createdAt,value
2023-03-17T00:00:21.523Z,70.70
2023-03-17T00:02:49.702Z,70.50
2023-03-17T00:05:22.477Z,69.80
2023-03-17T00:07:50.908Z,69.50
2023-03-17T00:10:22.022Z,69.10
2023-03-17T00:12:50.737Z,69.30
2023-03-17T00:15:17.828Z,69.10
2023-03-17T00:17:47.473Z,70.60
2023-03-17T00:20:25.447Z,70.80
2023-03-17T00:22:52.837Z,70.80
2023-03-17T00:25:23.831Z,70.20
2023-03-17T00:27:51.358Z,70.60
2023-03-17T00:30:18.862Z,70.10
2023-03-17T00:32:46.537Z,70.50
2023-03-17T00:35:25.692Z,69.60
2023-03-17T00:37:55.416Z,69.90
2023-03-17T00:40:30.744Z,70.30
2023-03-17T00:43:03.146Z,70.90
2023-03-17T00:45:29.897Z,71.00
2023-03-17T00:47:57.632Z,70.80
2023-03-17T00:50:28.659Z,71.20
2023-03-17T00:52:58.104Z,71.00
2023-03-17T00:55:26.573Z,70.70
2023-03-17T00:57:54.415Z,69.60
2023-03-17T01:00:26.879Z,69.80
2023-03-17T01:02:54.767Z,69.20
2023-03-17T01:05:23.828Z,69.40
2023-03-17T01:07:54.111Z,69.40
2023-03-17T01:10:28.394Z,69.50
2023-03-17T01:13:00.054Z,70.10
2023-03-17T01:15:31.516Z,69.00
2023-03-17T01:18:02.645Z,69.70
2023-03-17T01:20:32.883Z,69.40
2023-03-17T01:23:01.411Z,69.60
2023-03-17T01:25:28.616Z,70.50
2023-03-17T01:27:57.773Z,70.10
2023-03-17T01:30:31.331Z,70.30
2023-03-17T01:32:59.296Z,70.30
2023-03-17T01:35:29.339Z,70.40
2023-03-17T01:37:57.959Z,70.60
2023-03-17T01:40:28.325Z,70.90
2023-03-17T01:43:16.070Z,70.40
2023-03-17T01:46:17.121Z,70.20
2023-03-17T01:49:05.591Z,70.20
2023-03-17T01:51:49.801Z,69.90
2023-03-17T01:54:51.023Z,70.70
2023-03-17T01:57:25.366Z,70.80
2023-03-17T02:00:00.660Z,70.70
2023-03-17T02:02:34.594Z,71.00
2023-03-17T02:05:03.763Z,71.20
2023-03-17T02:07:31.317Z,70.70
2023-03-17T02:09:58.795Z,70.70
2023-03-17T02:12:27.740Z,69.90
2023-03-17T02:14:54.877Z,69.00
2023-03-17T02:17:25.600Z,68.90
2023-03-17T02:19:52.776Z,69.10
2023-03-17T02:22:20.247Z,68.90
2023-03-17T02:24:52.640Z,70.10
2023-03-17T02:27:21.191Z,70.30
2023-03-17T02:29:47.934Z,70.70
2023-03-17T02:32:17.579Z,70.60
2023-03-17T02:34:48.570Z,71.00
2023-03-17T02:37:18.164Z,71.30
2023-03-17T02:39:45.384Z,71.30
2023-03-17T02:42:12.774Z,71.20
2023-03-17T02:44:40.423Z,71.30
2023-03-17T02:47:08.362Z,71.10
2023-03-17T02:49:35.921Z,71.00
2023-03-17T02:52:02.939Z,71.40
2023-03-17T02:54:29.710Z,70.80
2023-03-17T02:56:56.446Z,70.40
2023-03-17T02:59:23.122Z,69.60
2023-03-17T03:01:50.649Z,69.50
2023-03-17T03:04:19.048Z,69.80
2023-03-17T03:06:46.681Z,70.00
2023-03-17T03:09:14.515Z,69.90
2023-03-17T03:11:41.537Z,69.50
2023-03-17T03:14:08.343Z,69.80
2023-03-17T03:16:35.014Z,70.30
2023-03-17T03:19:02.177Z,70.70
2023-03-17T03:21:29.359Z,70.30
2023-03-17T03:23:56.336Z,70.60
2023-03-17T03:26:23.033Z,70.30
2023-03-17T03:28:50.088Z,69.60
2023-03-17T03:31:17.098Z,69.90
2023-03-17T03:33:44.779Z,69.90
2023-03-17T03:36:11.743Z,70.10
2023-03-17T03:38:38.449Z,70.50
2023-03-17T03:41:06.291Z,70.30
2023-03-17T03:43:33.010Z,71.50
2023-03-17T03:45:59.803Z,72.10
2023-03-17T03:48:27.031Z,72.40
2023-03-17T03:50:58.883Z,72.50
2023-03-17T03:53:26.398Z,72.40
2023-03-17T03:55:54.318Z,72.10
2023-03-17T03:58:21.092Z,72.20
2023-03-17T04:00:48.150Z,72.00
2023-03-17T04:03:15.926Z,71.90
2023-03-17T04:05:42.804Z,71.40
2023-03-17T04:08:09.433Z,70.80
2023-03-17T04:10:36.223Z,70.30
2023-03-17T04:13:02.929Z,71.50
2023-03-17T04:15:29.779Z,71.10
2023-03-17T04:17:56.529Z,71.60
2023-03-17T04:20:23.340Z,71.70
2023-03-17T04:22:49.993Z,72.20
2023-03-17T04:25:16.799Z,72.10
2023-03-17T04:27:43.826Z,72.30
2023-03-17T04:30:14.557Z,72.30
2023-03-17T04:32:41.879Z,71.90
2023-03-17T04:35:15.746Z,71.90
2023-03-17T04:37:42.395Z,72.10
2023-03-17T04:40:11.434Z,72.30
2023-03-17T04:42:38.554Z,72.10
2023-03-17T04:45:06.888Z,72.30
2023-03-17T04:47:33.950Z,72.90
2023-03-17T04:50:01.297Z,73.20
2023-03-17T04:52:28.322Z,72.50
2023-03-17T04:54:55.063Z,72.30
2023-03-17T04:57:22.265Z,71.90
2023-03-17T04:59:48.918Z,72.50
2023-03-17T05:02:15.648Z,72.60
2023-03-17T05:04:42.741Z,73.70
2023-03-17T05:07:09.370Z,73.40
2023-03-17T05:09:36.103Z,73.10
2023-03-17T05:12:02.810Z,72.80
2023-03-17T05:14:29.612Z,72.60
2023-03-17T05:16:56.341Z,72.40
2023-03-17T05:19:23.066Z,72.30
2023-03-17T05:21:49.754Z,72.10
2023-03-17T05:24:16.716Z,71.90
2023-03-17T05:26:44.532Z,71.60
2023-03-17T05:29:11.225Z,71.80
2023-03-17T05:31:38.457Z,72.40
2023-03-17T05:34:05.614Z,72.80
2023-03-17T05:36:33.466Z,73.40
2023-03-17T05:39:00.324Z,73.80
2023-03-17T05:41:27.218Z,73.90
2023-03-17T05:43:54.068Z,73.90
2023-03-17T05:46:20.851Z,73.70
2023-03-17T05:48:47.669Z,73.90
2023-03-17T05:51:14.723Z,72.90
2023-03-17T05:53:41.697Z,72.80
2023-03-17T05:56:09.270Z,72.90
2023-03-17T05:58:35.973Z,72.40
2023-03-17T06:01:02.630Z,71.80
2023-03-17T06:03:29.311Z,70.90
2023-03-17T06:05:56.847Z,71.10
2023-03-17T06:08:23.512Z,71.10
2023-03-17T06:10:50.181Z,71.00
2023-03-17T06:13:16.933Z,72.30
2023-03-17T06:15:44.071Z,72.70
2023-03-17T06:18:10.780Z,73.00
2023-03-17T06:20:37.440Z,72.80
2023-03-17T06:23:05.817Z,72.70
2023-03-17T06:25:35.973Z,72.20
2023-03-17T06:28:05.331Z,71.90
2023-03-17T06:30:33.759Z,71.90
2023-03-17T06:33:01.515Z,71.30
2023-03-17T06:35:29.393Z,71.60
2023-03-17T06:37:56.288Z,71.70
2023-03-17T06:40:22.955Z,70.90
2023-03-17T06:42:49.760Z,71.00
2023-03-17T06:45:17.289Z,70.10
2023-03-17T06:47:44.089Z,69.60
2023-03-17T06:50:12.120Z,69.50
2023-03-17T06:52:40.058Z,69.40
2023-03-17T06:55:07.418Z,69.00
2023-03-17T06:57:34.567Z,68.40
2023-03-17T07:00:01.453Z,67.90
2023-03-17T07:02:28.160Z,67.70
2023-03-17T07:04:54.921Z,67.80
2023-03-17T07:07:21.567Z,67.60
2023-03-17T07:09:48.218Z,67.30
2023-03-17T07:12:15.722Z,67.00
2023-03-17T07:14:42.482Z,66.20
2023-03-17T07:17:13.585Z,65.90
2023-03-17T07:19:41.021Z,66.00
2023-03-17T07:22:09.570Z,67.50
2023-03-17T07:24:36.263Z,67.20
2023-03-17T07:27:02.922Z,66.50
2023-03-17T07:29:29.921Z,64.20
2023-03-17T07:31:57.131Z,64.20
2023-03-17T07:34:24.197Z,64.10
2023-03-17T07:36:51.005Z,63.20
2023-03-17T07:39:17.701Z,62.40
2023-03-17T07:41:44.606Z,62.60
2023-03-17T07:44:11.437Z,62.30
2023-03-17T07:46:38.946Z,62.10
2023-03-17T07:49:06.213Z,61.30
2023-03-17T07:51:33.157Z,61.60
2023-03-17T07:54:03.898Z,62.00
2023-03-17T07:56:32.459Z,61.40
2023-03-17T07:58:59.855Z,58.80
2023-03-17T08:01:27.822Z,58.60
2023-03-17T08:03:56.377Z,58.30
2023-03-17T08:06:25.275Z,57.50
2023-03-17T08:08:53.116Z,56.80
2023-03-17T08:11:20.224Z,54.60
2023-03-17T08:13:47.756Z,54.90
2023-03-17T08:16:14.507Z,55.50
2023-03-17T08:18:41.543Z,55.80
2023-03-17T08:21:08.356Z,55.00
2023-03-17T08:23:35.340Z,53.20
2023-03-17T08:26:04.229Z,52.80
2023-03-17T08:28:31.824Z,53.00
2023-03-17T08:31:19.344Z,52.20
2023-03-17T08:33:48.867Z,50.60
2023-03-17T08:36:16.392Z,50.00
2023-03-17T08:38:44.187Z,50.50
2023-03-17T08:41:14.551Z,48.80
2023-03-17T08:43:43.839Z,48.20
2023-03-17T08:46:23.083Z,48.10
2023-03-17T08:48:51.113Z,47.40
2023-03-17T08:51:21.470Z,46.80
2023-03-17T08:53:50.173Z,46.10
2023-03-17T08:56:17.056Z,45.20
2023-03-17T08:58:44.943Z,44.60
2023-03-17T09:01:12.426Z,45.30
2023-03-17T09:03:40.714Z,45.30
2023-03-17T09:06:09.401Z,46.20
2023-03-17T09:08:39.770Z,46.70
2023-03-17T09:11:07.610Z,47.00
2023-03-17T09:13:35.937Z,47.00
2023-03-17T09:16:02.827Z,46.90
2023-03-17T09:18:31.351Z,46.20
2023-03-17T09:20:58.077Z,45.70
2023-03-17T09:23:25.240Z,45.50
2023-03-17T09:25:52.605Z,45.10
2023-03-17T09:28:19.409Z,44.90
2023-03-17T09:30:46.279Z,45.00
2023-03-17T09:33:13.868Z,45.90
2023-03-17T09:35:41.011Z,45.20
2023-03-17T09:38:09.564Z,44.20
2023-03-17T09:40:43.777Z,44.40
2023-03-17T09:43:31.811Z,44.10
2023-03-17T09:46:07.615Z,43.40
2023-03-17T09:48:40.850Z,43.80
2023-03-17T09:51:12.866Z,44.90
2023-03-17T09:54:05.165Z,44.80
2023-03-17T09:56:34.416Z,44.40
2023-03-17T09:59:06.636Z,44.00
2023-03-17T10:01:34.329Z,43.00
2023-03-17T10:04:02.602Z,42.80
2023-03-17T10:06:47.711Z,42.20
2023-03-17T10:09:18.342Z,42.30
2023-03-17T10:11:50.648Z,41.70
2023-03-17T10:14:46.143Z,41.50
2023-03-17T10:17:20.216Z,40.80
2023-03-17T10:20:32.380Z,40.70
2023-03-17T10:23:04.662Z,40.10
2023-03-17T10:25:36.495Z,38.90
2023-03-17T10:28:27.479Z,38.20
2023-03-17T10:30:54.827Z,36.40
2023-03-17T10:33:21.566Z,35.90
2023-03-17T10:35:48.314Z,34.10
2023-03-17T10:38:18.203Z,31.50
2023-03-17T10:41:06.531Z,31.40
2023-03-17T10:43:46.340Z,32.90
2023-03-17T10:46:25.759Z,33.90
2023-03-17T10:48:56.916Z,34.00
2023-03-17T10:51:32.722Z,33.70
2023-03-17T10:54:09.512Z,36.10
2023-03-17T10:56:38.122Z,36.90
2023-03-17T10:59:17.237Z,38.90
2023-03-17T11:01:49.666Z,40.90
2023-03-17T11:04:36.881Z,41.20
2023-03-17T11:07:12.281Z,41.40
2023-03-17T11:09:38.977Z,41.50
2023-03-17T11:12:08.829Z,41.60
2023-03-17T11:14:35.556Z,40.90
2023-03-17T11:17:18.586Z,40.70
2023-03-17T11:20:12.815Z,40.70
2023-03-17T11:22:50.027Z,41.20
2023-03-17T11:25:20.200Z,40.60
2023-03-17T11:28:09.269Z,40.50
2023-03-17T11:30:54.674Z,39.80
2023-03-17T11:33:36.192Z,39.30
2023-03-17T11:36:26.033Z,39.80
2023-03-17T11:39:07.163Z,38.80
2023-03-17T11:41:55.657Z,39.20
2023-03-17T11:44:38.444Z,39.20
2023-03-17T11:47:14.100Z,38.80
2023-03-17T11:49:41.669Z,39.10
2023-03-17T11:52:19.799Z,39.60
2023-03-17T11:55:14.404Z,39.20
2023-03-17T11:57:56.831Z,38.90
2023-03-17T12:00:46.123Z,38.90
2023-03-17T12:03:38.742Z,38.00
2023-03-17T12:06:13.668Z,38.90
2023-03-17T12:09:00.322Z,39.10
2023-03-17T12:11:31.673Z,38.90
2023-03-17T12:14:05.879Z,38.90
2023-03-17T12:16:38.249Z,40.00
2023-03-17T12:19:16.474Z,38.20
2023-03-17T12:21:55.596Z,39.10
2023-03-17T12:24:51.290Z,38.80
2023-03-17T12:27:28.453Z,38.10
2023-03-17T12:30:21.784Z,38.00
2023-03-17T12:32:56.980Z,37.70
2023-03-17T12:35:34.918Z,38.80
2023-03-17T12:38:14.058Z,38.10
2023-03-17T12:41:09.703Z,38.30
2023-03-17T12:43:53.531Z,38.10
2023-03-17T12:46:33.711Z,37.70
2023-03-17T12:49:00.402Z,37.80
2023-03-17T12:52:10.149Z,37.80
2023-03-17T12:54:39.401Z,36.80
2023-03-17T12:57:20.131Z,36.90
2023-03-17T12:59:49.729Z,36.70
2023-03-17T13:02:23.098Z,36.00
2023-03-17T13:05:00.409Z,36.60
2023-03-17T13:07:37.806Z,36.60
2023-03-17T13:10:21.462Z,35.90
2023-03-17T13:12:48.062Z,35.40
2023-03-17T13:15:38.021Z,35.60
2023-03-17T13:18:17.186Z,35.90
2023-03-17T13:20:52.511Z,35.60
2023-03-17T13:23:41.671Z,36.10
2023-03-17T13:26:17.754Z,36.70
2023-03-17T13:28:48.121Z,37.00
2023-03-17T13:31:31.301Z,37.00
2023-03-17T13:34:20.224Z,37.10
2023-03-17T13:37:13.690Z,37.60
2023-03-17T13:39:59.591Z,36.90
2023-03-17T13:42:49.084Z,35.70
2023-03-17T13:45:43.889Z,35.60
2023-03-17T13:48:27.252Z,35.30
2023-03-17T13:51:01.465Z,35.30
2023-03-17T13:53:31.656Z,35.90
2023-03-17T13:56:15.043Z,35.30
2023-03-17T13:59:05.196Z,35.70
2023-03-17T14:01:54.470Z,35.30
2023-03-17T14:04:42.649Z,35.20
2023-03-17T14:07:15.970Z,35.10
2023-03-17T14:09:43.945Z,35.60
2023-03-17T14:12:24.508Z,35.80
2023-03-17T14:15:11.992Z,36.30
2023-03-17T14:17:45.598Z,35.90
2023-03-17T14:20:15.581Z,36.30
2023-03-17T14:22:45.930Z,36.10
2023-03-17T14:25:19.119Z,36.00
2023-03-17T14:27:50.775Z,36.50
2023-03-17T14:30:20.981Z,36.40
2023-03-17T14:33:11.715Z,36.30
2023-03-17T14:35:45.151Z,36.50
2023-03-17T14:38:30.013Z,36.60
2023-03-17T14:41:15.379Z,35.80
2023-03-17T14:43:43.898Z,35.80
2023-03-17T14:46:18.348Z,34.10
2023-03-17T14:48:48.805Z,33.20
2023-03-17T14:51:36.480Z,32.00
2023-03-17T14:54:15.216Z,30.60
2023-03-17T14:56:46.602Z,29.20
2023-03-17T14:59:24.105Z,28.40
2023-03-17T15:01:56.416Z,26.80
2023-03-17T15:04:26.295Z,25.90
2023-03-17T15:07:04.553Z,24.50
2023-03-17T15:09:34.204Z,24.00
2023-03-17T15:12:05.870Z,23.20
2023-03-17T15:14:39.085Z,22.50
2023-03-17T15:17:16.326Z,23.10
2023-03-17T15:19:45.858Z,24.20
2023-03-17T15:22:30.128Z,25.20
2023-03-17T15:25:26.033Z,26.00
2023-03-17T15:27:53.748Z,26.80
2023-03-17T15:30:21.100Z,27.70
2023-03-17T15:32:52.910Z,28.70
2023-03-17T15:35:20.021Z,29.90
2023-03-17T15:37:46.936Z,30.80
2023-03-17T15:40:13.818Z,30.90
2023-03-17T15:42:40.639Z,30.40
2023-03-17T15:45:07.811Z,30.40
2023-03-17T15:47:36.968Z,30.30
2023-03-17T15:50:15.387Z,29.80
2023-03-17T15:52:42.700Z,29.50
2023-03-17T15:55:25.270Z,29.10
2023-03-17T15:57:54.940Z,28.60
2023-03-17T16:00:25.031Z,28.20
2023-03-17T16:02:53.967Z,27.30
2023-03-17T16:05:29.713Z,26.90
2023-03-17T16:07:56.746Z,26.80
2023-03-17T16:10:29.312Z,27.00
2023-03-17T16:12:56.226Z,27.60
2023-03-17T16:15:26.013Z,28.30
2023-03-17T16:17:55.568Z,29.20
2023-03-17T16:20:27.018Z,29.60
2023-03-17T16:22:55.539Z,29.20
2023-03-17T16:25:31.596Z,28.90
2023-03-17T16:28:00.727Z,29.00
2023-03-17T16:30:32.832Z,29.40
2023-03-17T16:33:02.999Z,30.60
2023-03-17T16:35:29.863Z,31.40
2023-03-17T16:37:56.578Z,32.30
2023-03-17T16:40:35.445Z,33.50
2023-03-17T16:43:12.947Z,34.50
2023-03-17T16:45:42.527Z,36.10
2023-03-17T16:48:12.859Z,36.70
2023-03-17T16:50:39.580Z,37.10
2023-03-17T16:53:06.370Z,38.20
2023-03-17T16:55:33.531Z,39.10
2023-03-17T16:58:05.664Z,40.40
2023-03-17T17:00:32.590Z,41.20
2023-03-17T17:02:59.556Z,42.80
2023-03-17T17:05:31.192Z,44.00
2023-03-17T17:07:58.570Z,45.00
2023-03-17T17:10:28.894Z,45.90
2023-03-17T17:12:55.893Z,46.50
2023-03-17T17:15:22.951Z,47.00
2023-03-17T17:17:56.986Z,47.40
2023-03-17T17:20:30.973Z,48.20
2023-03-17T17:22:59.603Z,50.30
2023-03-17T17:25:27.210Z,51.60
2023-03-17T17:27:54.881Z,52.40
2023-03-17T17:30:25.510Z,53.00
2023-03-17T17:32:52.618Z,53.30
2023-03-17T17:35:19.476Z,54.10
2023-03-17T17:37:46.190Z,54.80
2023-03-17T17:40:15.905Z,54.40
2023-03-17T17:42:44.005Z,54.50
2023-03-17T17:45:10.711Z,55.00
2023-03-17T17:47:37.392Z,55.50
2023-03-17T17:50:05.858Z,56.20
2023-03-17T17:52:32.664Z,55.60
2023-03-17T17:55:00.921Z,58.40
2023-03-17T17:57:28.593Z,59.00
2023-03-17T17:59:55.841Z,59.10
2023-03-17T18:02:22.700Z,58.80
2023-03-17T18:04:49.525Z,58.50
2023-03-17T18:07:16.224Z,58.00
2023-03-17T18:09:42.928Z,57.80
2023-03-17T18:12:09.711Z,57.60
2023-03-17T18:14:36.405Z,57.30
2023-03-17T18:17:03.065Z,57.00
2023-03-17T18:19:29.748Z,56.60
2023-03-17T18:21:56.592Z,56.90
2023-03-17T18:24:24.064Z,56.90
2023-03-17T18:26:51.727Z,56.50
2023-03-17T18:29:18.431Z,56.40
2023-03-17T18:31:49.817Z,56.40
2023-03-17T18:34:23.898Z,56.00
2023-03-17T18:36:51.891Z,56.10
2023-03-17T18:39:18.655Z,54.70
2023-03-17T18:41:45.670Z,54.50
2023-03-17T18:44:12.448Z,54.40
2023-03-17T18:46:39.472Z,53.70
2023-03-17T18:49:06.886Z,53.30
2023-03-17T18:51:33.925Z,53.60
2023-03-17T18:54:00.876Z,53.60
2023-03-17T18:56:29.563Z,54.30
2023-03-17T18:58:57.831Z,54.50
2023-03-17T19:01:25.659Z,54.60
2023-03-17T19:03:52.467Z,55.20
2023-03-17T19:06:21.853Z,54.90
2023-03-17T19:08:48.922Z,55.10
2023-03-17T19:11:18.345Z,55.60
2023-03-17T19:13:45.456Z,56.10
2023-03-17T19:16:12.817Z,56.80
2023-03-17T19:18:42.213Z,57.10
2023-03-17T19:21:10.622Z,57.10
2023-03-17T19:23:38.273Z,57.50
2023-03-17T19:26:05.840Z,58.00
2023-03-17T19:28:33.211Z,58.20
2023-03-17T19:31:00.276Z,58.60
2023-03-17T19:33:28.837Z,58.40
2023-03-17T19:35:58.504Z,58.20
2023-03-17T19:38:27.067Z,58.00
2023-03-17T19:40:53.821Z,58.30
2023-03-17T19:43:39.043Z,58.70
2023-03-17T19:46:06.428Z,59.40
2023-03-17T19:48:33.531Z,60.40
2023-03-17T19:51:01.428Z,60.70
2023-03-17T19:53:28.114Z,60.80
2023-03-17T19:55:56.578Z,60.80
2023-03-17T19:58:23.419Z,61.40
2023-03-17T20:00:50.604Z,60.90
2023-03-17T20:03:17.812Z,60.90
2023-03-17T20:05:46.225Z,61.30
2023-03-17T20:08:13.063Z,62.00
2023-03-17T20:10:39.980Z,62.40
2023-03-17T20:13:06.674Z,61.80
2023-03-17T20:15:33.690Z,62.30
2023-03-17T20:18:00.667Z,62.10
2023-03-17T20:20:27.573Z,61.30
2023-03-17T20:22:54.249Z,60.90
2023-03-17T20:25:21.768Z,61.80
2023-03-17T20:27:48.473Z,61.50
2023-03-17T20:30:16.087Z,62.10
2023-03-17T20:32:44.155Z,62.50
2023-03-17T20:35:11.477Z,62.90
2023-03-17T20:37:38.693Z,63.20
2023-03-17T20:40:08.173Z,63.20
2023-03-17T20:42:34.863Z,63.50
2023-03-17T20:45:03.421Z,64.00
2023-03-17T20:47:30.669Z,63.80
2023-03-17T20:49:58.860Z,64.30
2023-03-17T20:52:29.470Z,64.50
2023-03-17T20:54:56.882Z,64.90
2023-03-17T20:57:23.542Z,65.10
2023-03-17T20:59:51.877Z,65.90
2023-03-17T21:02:18.885Z,66.30
2023-03-17T21:04:48.057Z,66.80
2023-03-17T21:07:19.410Z,66.70
2023-03-17T21:09:46.843Z,66.40
2023-03-17T21:12:19.654Z,66.20
2023-03-17T21:14:48.177Z,66.30
2023-03-17T21:17:16.322Z,66.10
2023-03-17T21:19:44.089Z,65.80
2023-03-17T21:22:12.328Z,66.20
2023-03-17T21:24:39.854Z,66.50
2023-03-17T21:27:11.174Z,66.00
2023-03-17T21:29:38.786Z,65.50
2023-03-17T21:32:07.066Z,66.00
2023-03-17T21:34:34.196Z,65.90
2023-03-17T21:37:01.305Z,66.40
2023-03-17T21:39:29.734Z,66.00
2023-03-17T21:41:56.978Z,65.80
2023-03-17T21:44:24.348Z,65.50
2023-03-17T21:46:51.197Z,65.60
2023-03-17T21:49:18.811Z,65.70
2023-03-17T21:51:46.745Z,66.00
2023-03-17T21:54:14.179Z,66.80
2023-03-17T21:56:41.543Z,67.00
2023-03-17T21:59:11.120Z,66.30
2023-03-17T22:01:41.824Z,66.30
2023-03-17T22:04:09.251Z,66.50
2023-03-17T22:06:36.206Z,66.60
2023-03-17T22:09:04.689Z,67.10
2023-03-17T22:11:31.733Z,67.30
2023-03-17T22:13:59.000Z,67.30
2023-03-17T22:16:25.977Z,67.20
2023-03-17T22:18:52.824Z,67.00
2023-03-17T22:21:21.359Z,66.60
2023-03-17T22:23:48.230Z,66.50
2023-03-17T22:26:18.211Z,66.20
2023-03-17T22:28:46.714Z,66.70
2023-03-17T22:31:22.769Z,66.30
2023-03-17T22:33:52.538Z,66.90
2023-03-17T22:36:19.671Z,66.90
2023-03-17T22:38:46.956Z,66.40
2023-03-17T22:41:16.537Z,67.00
2023-03-17T22:43:43.522Z,66.70
2023-03-17T22:46:11.234Z,67.20
2023-03-17T22:48:38.081Z,67.20
2023-03-17T22:51:07.286Z,67.00
2023-03-17T22:53:34.879Z,67.10
2023-03-17T22:56:01.889Z,67.00
2023-03-17T22:58:28.703Z,67.00
2023-03-17T23:00:56.231Z,67.00
2023-03-17T23:03:24.582Z,66.60
2023-03-17T23:05:53.030Z,66.40
2023-03-17T23:08:20.747Z,66.50
2023-03-17T23:10:49.936Z,66.70
2023-03-17T23:13:20.871Z,67.00
2023-03-17T23:15:48.456Z,67.50
2023-03-17T23:18:15.516Z,67.40
2023-03-17T23:20:43.275Z,67.30
2023-03-17T23:23:11.488Z,67.10
2023-03-17T23:25:38.389Z,67.40
2023-03-17T23:28:06.787Z,67.40
2023-03-17T23:30:35.623Z,66.70
2023-03-17T23:33:02.942Z,66.90
2023-03-17T23:35:29.634Z,67.70
2023-03-17T23:37:56.445Z,67.70
2023-03-17T23:40:23.637Z,67.20
2023-03-17T23:42:54.190Z,67.00
2023-03-17T23:45:23.083Z,67.10
2023-03-17T23:47:51.482Z,67.50
2023-03-17T23:50:19.418Z,67.40
2023-03-17T23:52:47.043Z,68.00
2023-03-17T23:55:14.468Z,67.80
2023-03-17T23:57:41.550Z,67.60
